Terminal Aerodrome Forecast
Issued by NWS

Home | Current Version | Previous Version | Text Only | Print | Product List | Glossary On
Versions: 1 2 3 4 5 6 7 8 9 10 11 12 13 14 15 16 17
000
FTUS44 KMAF 201700
TAFFST
TAF
KFST 201721Z 2018/2118 23010KT P6SM SCT080 SCT250
      TEMPO 2021/2101 VRB15G25KT 5SM TSRA BKN050CB
     FM210100 16010KT P6SM FEW040 BKN200=

USA.gov is the U.S. government's official web portal to all federal, state and local government web resources and services.